sensor_id;sensor_type;location;lat;lon;timestamp;pressure;altitude;pressure_sealevel;temperature;humidity
41306;BME280;27051;50.376;19.152;2023-01-31T00:01:56;97336.23;;;3.00;67.38
41306;BME280;27051;50.376;19.152;2023-01-31T00:04:23;97331.44;;;3.01;67.59
41306;BME280;27051;50.376;19.152;2023-01-31T00:06:49;97332.49;;;3.01;67.54
41306;BME280;27051;50.376;19.152;2023-01-31T00:09:16;97337.52;;;3.02;67.58
41306;BME280;27051;50.376;19.152;2023-01-31T00:11:43;97337.53;;;3.03;67.79
41306;BME280;27051;50.376;19.152;2023-01-31T00:14:15;97342.76;;;3.09;67.74
41306;BME280;27051;50.376;19.152;2023-01-31T00:16:43;97345.70;;;3.11;67.71
41306;BME280;27051;50.376;19.152;2023-01-31T00:19:10;97339.92;;;3.11;67.76
41306;BME280;27051;50.376;19.152;2023-01-31T00:21:37;97338.81;;;3.05;67.87
41306;BME280;27051;50.376;19.152;2023-01-31T00:24:04;97346.86;;;3.02;67.86
41306;BME280;27051;50.376;19.152;2023-01-31T00:26:32;97350.89;;;3.01;68.03
41306;BME280;27051;50.376;19.152;2023-01-31T00:29:01;97351.94;;;2.96;68.20
41306;BME280;27051;50.376;19.152;2023-01-31T00:31:30;97343.67;;;2.93;67.97
41306;BME280;27051;50.376;19.152;2023-01-31T00:33:58;97354.35;;;2.92;68.38
41306;BME280;27051;50.376;19.152;2023-01-31T00:36:27;97360.88;;;2.92;68.30
41306;BME280;27051;50.376;19.152;2023-01-31T00:38:57;97360.66;;;2.92;68.45
41306;BME280;27051;50.376;19.152;2023-01-31T00:41:28;97365.86;;;2.91;68.28
41306;BME280;27051;50.376;19.152;2023-01-31T00:43:56;97367.71;;;2.91;68.32
41306;BME280;27051;50.376;19.152;2023-01-31T00:46:23;97370.75;;;2.94;68.29
41306;BME280;27051;50.376;19.152;2023-01-31T00:48:51;97372.90;;;2.98;68.27
41306;BME280;27051;50.376;19.152;2023-01-31T00:51:19;97374.52;;;2.97;68.39
41306;BME280;27051;50.376;19.152;2023-01-31T00:53:46;97377.97;;;2.93;68.29
41306;BME280;27051;50.376;19.152;2023-01-31T00:56:16;97383.42;;;2.91;68.54
41306;BME280;27051;50.376;19.152;2023-01-31T00:58:44;97384.31;;;2.86;68.63
41306;BME280;27051;50.376;19.152;2023-01-31T01:03:40;97399.45;;;2.87;68.75
41306;BME280;27051;50.376;19.152;2023-01-31T01:06:08;97399.80;;;2.90;68.70
41306;BME280;27051;50.376;19.152;2023-01-31T01:08:37;97408.45;;;2.96;68.66
41306;BME280;27051;50.376;19.152;2023-01-31T01:11:13;97411.56;;;2.97;68.66
41306;BME280;27051;50.376;19.152;2023-01-31T01:13:41;97410.60;;;2.95;68.62
41306;BME280;27051;50.376;19.152;2023-01-31T01:16:12;97413.41;;;2.95;68.61
41306;BME280;27051;50.376;19.152;2023-01-31T01:18:40;97422.77;;;3.00;68.60
41306;BME280;27051;50.376;19.152;2023-01-31T01:21:13;97419.39;;;3.04;68.48
41306;BME280;27051;50.376;19.152;2023-01-31T01:23:41;97422.77;;;3.07;68.46
41306;BME280;27051;50.376;19.152;2023-01-31T01:26:16;97418.75;;;3.08;68.40
41306;BME280;27051;50.376;19.152;2023-01-31T01:28:43;97425.81;;;3.08;68.51
41306;BME280;27051;50.376;19.152;2023-01-31T01:31:11;97432.79;;;3.11;68.41
41306;BME280;27051;50.376;19.152;2023-01-31T01:33:38;97439.56;;;3.17;68.36
41306;BME280;27051;50.376;19.152;2023-01-31T01:36:07;97440.09;;;3.20;68.30
41306;BME280;27051;50.376;19.152;2023-01-31T01:38:35;97440.86;;;3.20;68.16
41306;BME280;27051;50.376;19.152;2023-01-31T01:41:03;97440.02;;;3.19;68.14
41306;BME280;27051;50.376;19.152;2023-01-31T01:48:54;97444.37;;;3.23;68.12
41306;BME280;27051;50.376;19.152;2023-01-31T01:51:22;97440.06;;;3.25;67.99
41306;BME280;27051;50.376;19.152;2023-01-31T01:53:55;97446.24;;;3.24;67.93
41306;BME280;27051;50.376;19.152;2023-01-31T01:56:26;97447.65;;;3.24;67.97
41306;BME280;27051;50.376;19.152;2023-01-31T01:59:02;97445.21;;;3.24;67.95
41306;BME280;27051;50.376;19.152;2023-01-31T02:01:35;97446.41;;;3.20;67.90
41306;BME280;27051;50.376;19.152;2023-01-31T02:04:04;97450.59;;;3.17;67.90
41306;BME280;27051;50.376;19.152;2023-01-31T02:06:32;97447.90;;;3.16;67.69
41306;BME280;27051;50.376;19.152;2023-01-31T02:08:59;97453.31;;;3.18;67.62
41306;BME280;27051;50.376;19.152;2023-01-31T02:11:28;97452.24;;;3.17;67.45
41306;BME280;27051;50.376;19.152;2023-01-31T02:14:00;97449.56;;;3.12;66.98
41306;BME280;27051;50.376;19.152;2023-01-31T02:16:27;97454.77;;;3.08;66.55
41306;BME280;27051;50.376;19.152;2023-01-31T02:18:55;97458.47;;;3.04;66.43
41306;BME280;27051;50.376;19.152;2023-01-31T02:24:25;97470.31;;;3.00;66.65
41306;BME280;27051;50.376;19.152;2023-01-31T02:32:58;97483.33;;;3.04;66.98
41306;BME280;27051;50.376;19.152;2023-01-31T02:41:11;97500.22;;;3.14;67.04
41306;BME280;27051;50.376;19.152;2023-01-31T02:43:52;97500.45;;;3.13;66.95
41306;BME280;27051;50.376;19.152;2023-01-31T02:46:20;97503.39;;;3.15;66.95
41306;BME280;27051;50.376;19.152;2023-01-31T02:48:57;97508.49;;;3.19;66.94
41306;BME280;27051;50.376;19.152;2023-01-31T02:51:30;97507.24;;;3.26;67.13
41306;BME280;27051;50.376;19.152;2023-01-31T02:54:14;97510.77;;;3.33;67.12
41306;BME280;27051;50.376;19.152;2023-01-31T02:56:44;97521.26;;;3.43;67.07
41306;BME280;27051;50.376;19.152;2023-01-31T02:59:19;97530.80;;;3.45;66.80
41306;BME280;27051;50.376;19.152;2023-01-31T03:01:54;97530.80;;;3.47;66.75
41306;BME280;27051;50.376;19.152;2023-01-31T03:04:23;97532.16;;;3.44;66.94
41306;BME280;27051;50.376;19.152;2023-01-31T03:06:56;97530.79;;;3.42;66.80
41306;BME280;27051;50.376;19.152;2023-01-31T03:09:39;97524.80;;;3.39;66.83
41306;BME280;27051;50.376;19.152;2023-01-31T03:15:30;97528.44;;;3.35;66.63
41306;BME280;27051;50.376;19.152;2023-01-31T03:18:09;97539.24;;;3.27;66.61
41306;BME280;27051;50.376;19.152;2023-01-31T03:20:52;97540.80;;;3.22;66.45
41306;BME280;27051;50.376;19.152;2023-01-31T03:23:23;97543.84;;;3.17;66.57
41306;BME280;27051;50.376;19.152;2023-01-31T03:25:51;97552.48;;;3.18;66.69
41306;BME280;27051;50.376;19.152;2023-01-31T03:28:22;97553.11;;;3.21;66.64
41306;BME280;27051;50.376;19.152;2023-01-31T03:31:07;97553.91;;;3.18;66.58
41306;BME280;27051;50.376;19.152;2023-01-31T03:33:44;97557.97;;;3.13;66.61
41306;BME280;27051;50.376;19.152;2023-01-31T03:36:45;97568.60;;;3.12;66.79
41306;BME280;27051;50.376;19.152;2023-01-31T03:42:10;97578.27;;;3.01;67.14
41306;BME280;27051;50.376;19.152;2023-01-31T03:44:57;97584.16;;;2.97;67.15
41306;BME280;27051;50.376;19.152;2023-01-31T03:47:41;97593.71;;;2.88;67.15
41306;BME280;27051;50.376;19.152;2023-01-31T03:50:14;97595.02;;;2.87;67.21
41306;BME280;27051;50.376;19.152;2023-01-31T03:53:17;97595.58;;;2.83;67.16
41306;BME280;27051;50.376;19.152;2023-01-31T03:55:50;97593.19;;;2.80;67.44
41306;BME280;27051;50.376;19.152;2023-01-31T03:58:19;97599.14;;;2.78;67.32
41306;BME280;27051;50.376;19.152;2023-01-31T04:00:48;97598.78;;;2.73;67.15
41306;BME280;27051;50.376;19.152;2023-01-31T04:03:19;97604.64;;;2.69;67.16
41306;BME280;27051;50.376;19.152;2023-01-31T04:05:50;97610.52;;;2.67;67.20
41306;BME280;27051;50.376;19.152;2023-01-31T04:08:16;97614.34;;;2.62;67.22
41306;BME280;27051;50.376;19.152;2023-01-31T04:10:43;97627.47;;;2.64;67.26
41306;BME280;27051;50.376;19.152;2023-01-31T04:13:10;97634.98;;;2.65;67.13
41306;BME280;27051;50.376;19.152;2023-01-31T04:15:37;97640.77;;;2.62;67.09
41306;BME280;27051;50.376;19.152;2023-01-31T04:18:04;97640.63;;;2.61;67.08
41306;BME280;27051;50.376;19.152;2023-01-31T04:20:31;97640.43;;;2.58;67.21
41306;BME280;27051;50.376;19.152;2023-01-31T04:22:58;97648.13;;;2.53;67.26
41306;BME280;27051;50.376;19.152;2023-01-31T04:25:25;97646.47;;;2.53;67.24
41306;BME280;27051;50.376;19.152;2023-01-31T04:27:52;97647.02;;;2.52;67.29
41306;BME280;27051;50.376;19.152;2023-01-31T04:30:19;97647.81;;;2.47;67.27
41306;BME280;27051;50.376;19.152;2023-01-31T04:32:45;97648.55;;;2.43;67.47
41306;BME280;27051;50.376;19.152;2023-01-31T04:35:12;97649.17;;;2.40;67.42
41306;BME280;27051;50.376;19.152;2023-01-31T04:37:39;97655.08;;;2.37;67.34
41306;BME280;27051;50.376;19.152;2023-01-31T04:40:08;97658.98;;;2.35;67.38
41306;BME280;27051;50.376;19.152;2023-01-31T04:42:35;97662.34;;;2.36;67.50
41306;BME280;27051;50.376;19.152;2023-01-31T04:45:04;97660.27;;;2.35;67.38
41306;BME280;27051;50.376;19.152;2023-01-31T04:47:31;97665.39;;;2.35;67.27
41306;BME280;27051;50.376;19.152;2023-01-31T04:49:58;97668.20;;;2.32;67.29
41306;BME280;27051;50.376;19.152;2023-01-31T04:52:25;97671.20;;;2.28;67.30
41306;BME280;27051;50.376;19.152;2023-01-31T04:54:52;97680.06;;;2.28;67.27
41306;BME280;27051;50.376;19.152;2023-01-31T04:57:19;97685.27;;;2.31;67.36
41306;BME280;27051;50.376;19.152;2023-01-31T04:59:48;97686.05;;;2.34;67.32
41306;BME280;27051;50.376;19.152;2023-01-31T05:02:14;97684.88;;;2.34;67.26
41306;BME280;27051;50.376;19.152;2023-01-31T05:04:41;97700.00;;;2.40;67.23
41306;BME280;27051;50.376;19.152;2023-01-31T05:07:08;97701.79;;;2.41;67.28
41306;BME280;27051;50.376;19.152;2023-01-31T05:09:35;97705.79;;;2.42;67.12
41306;BME280;27051;50.376;19.152;2023-01-31T05:12:02;97712.00;;;2.43;67.11
41306;BME280;27051;50.376;19.152;2023-01-31T05:14:28;97719.31;;;2.48;67.27
41306;BME280;27051;50.376;19.152;2023-01-31T05:16:55;97724.65;;;2.58;67.29
41306;BME280;27051;50.376;19.152;2023-01-31T05:19:22;97724.55;;;2.65;67.21
41306;BME280;27051;50.376;19.152;2023-01-31T05:21:49;97727.11;;;2.67;66.95
41306;BME280;27051;50.376;19.152;2023-01-31T05:24:16;97724.48;;;2.71;67.14
41306;BME280;27051;50.376;19.152;2023-01-31T05:26:43;97732.64;;;2.78;67.02
41306;BME280;27051;50.376;19.152;2023-01-31T05:29:09;97737.29;;;2.75;66.92
41306;BME280;27051;50.376;19.152;2023-01-31T05:31:36;97735.77;;;2.77;67.05
41306;BME280;27051;50.376;19.152;2023-01-31T05:34:03;97734.98;;;2.82;67.10
41306;BME280;27051;50.376;19.152;2023-01-31T05:36:30;97738.31;;;2.83;67.12
41306;BME280;27051;50.376;19.152;2023-01-31T05:38:56;97737.98;;;2.87;67.17
41306;BME280;27051;50.376;19.152;2023-01-31T05:41:23;97738.65;;;2.90;67.21
41306;BME280;27051;50.376;19.152;2023-01-31T05:43:50;97745.74;;;2.91;67.06
41306;BME280;27051;50.376;19.152;2023-01-31T05:46:17;97741.08;;;2.88;67.00
41306;BME280;27051;50.376;19.152;2023-01-31T05:48:44;97749.17;;;2.89;67.09
41306;BME280;27051;50.376;19.152;2023-01-31T05:51:11;97751.02;;;2.85;66.95
41306;BME280;27051;50.376;19.152;2023-01-31T05:53:37;97751.02;;;2.81;66.96
41306;BME280;27051;50.376;19.152;2023-01-31T05:56:05;97753.08;;;2.77;67.00
41306;BME280;27051;50.376;19.152;2023-01-31T05:58:32;97758.59;;;2.75;66.90
41306;BME280;27051;50.376;19.152;2023-01-31T06:00:59;97762.78;;;2.74;66.96
41306;BME280;27051;50.376;19.152;2023-01-31T06:03:28;97766.39;;;2.78;66.98
41306;BME280;27051;50.376;19.152;2023-01-31T06:05:55;97771.98;;;2.82;66.81
41306;BME280;27051;50.376;19.152;2023-01-31T06:08:22;97780.47;;;2.80;66.72
41306;BME280;27051;50.376;19.152;2023-01-31T06:10:49;97784.96;;;2.80;66.69
41306;BME280;27051;50.376;19.152;2023-01-31T06:13:15;97785.92;;;2.83;66.52
41306;BME280;27051;50.376;19.152;2023-01-31T06:15:43;97788.11;;;2.80;66.51
41306;BME280;27051;50.376;19.152;2023-01-31T06:18:10;97789.66;;;2.77;66.35
41306;BME280;27051;50.376;19.152;2023-01-31T06:20:37;97794.96;;;2.74;66.44
41306;BME280;27051;50.376;19.152;2023-01-31T06:23:04;97798.65;;;2.73;66.50
41306;BME280;27051;50.376;19.152;2023-01-31T06:25:30;97806.91;;;2.73;66.49
41306;BME280;27051;50.376;19.152;2023-01-31T06:27:57;97818.55;;;2.76;66.63
41306;BME280;27051;50.376;19.152;2023-01-31T06:30:24;97824.48;;;2.85;66.49
41306;BME280;27051;50.376;19.152;2023-01-31T06:32:51;97834.15;;;2.84;66.41
41306;BME280;27051;50.376;19.152;2023-01-31T06:35:17;97838.05;;;2.81;66.22
41306;BME280;27051;50.376;19.152;2023-01-31T06:37:44;97847.73;;;2.79;66.21
41306;BME280;27051;50.376;19.152;2023-01-31T06:40:11;97850.08;;;2.81;66.42
41306;BME280;27051;50.376;19.152;2023-01-31T06:42:38;97854.77;;;2.86;66.31
41306;BME280;27051;50.376;19.152;2023-01-31T06:45:05;97858.03;;;2.91;66.32
41306;BME280;27051;50.376;19.152;2023-01-31T06:47:32;97861.51;;;2.90;66.16
41306;BME280;27051;50.376;19.152;2023-01-31T06:49:59;97869.41;;;2.90;66.04
41306;BME280;27051;50.376;19.152;2023-01-31T06:52:26;97878.59;;;2.90;66.14
41306;BME280;27051;50.376;19.152;2023-01-31T06:54:52;97882.74;;;2.90;66.02
41306;BME280;27051;50.376;19.152;2023-01-31T06:57:19;97884.81;;;2.90;65.75
41306;BME280;27051;50.376;19.152;2023-01-31T06:59:46;97889.67;;;2.87;66.08
41306;BME280;27051;50.376;19.152;2023-01-31T07:02:13;97892.08;;;2.90;66.18
41306;BME280;27051;50.376;19.152;2023-01-31T07:04:40;97896.25;;;2.94;65.93
41306;BME280;27051;50.376;19.152;2023-01-31T07:07:06;97897.94;;;2.94;65.82
41306;BME280;27051;50.376;19.152;2023-01-31T07:09:33;97901.94;;;2.97;65.83
41306;BME280;27051;50.376;19.152;2023-01-31T07:12:01;97903.63;;;2.99;65.91
41306;BME280;27051;50.376;19.152;2023-01-31T07:14:28;97910.19;;;3.04;65.88
41306;BME280;27051;50.376;19.152;2023-01-31T07:16:55;97910.59;;;3.05;65.59
41306;BME280;27051;50.376;19.152;2023-01-31T07:19:22;97910.95;;;3.06;65.44
41306;BME280;27051;50.376;19.152;2023-01-31T07:21:48;97907.74;;;3.04;65.42
41306;BME280;27051;50.376;19.152;2023-01-31T07:24:15;97902.55;;;3.04;65.46
41306;BME280;27051;50.376;19.152;2023-01-31T07:26:42;97899.74;;;3.03;65.34
41306;BME280;27051;50.376;19.152;2023-01-31T07:29:09;97898.85;;;3.00;65.29
41306;BME280;27051;50.376;19.152;2023-01-31T07:31:37;97908.20;;;3.02;65.24
41306;BME280;27051;50.376;19.152;2023-01-31T07:34:03;97906.02;;;3.03;65.32
41306;BME280;27051;50.376;19.152;2023-01-31T07:36:30;97910.76;;;3.02;65.14
41306;BME280;27051;50.376;19.152;2023-01-31T07:38:57;97912.30;;;3.02;65.08
41306;BME280;27051;50.376;19.152;2023-01-31T07:41:24;97913.27;;;3.02;64.99
41306;BME280;27051;50.376;19.152;2023-01-31T07:43:51;97917.73;;;3.02;64.94
41306;BME280;27051;50.376;19.152;2023-01-31T07:46:18;97920.50;;;3.04;64.89
41306;BME280;27051;50.376;19.152;2023-01-31T07:48:45;97928.58;;;3.06;64.83
41306;BME280;27051;50.376;19.152;2023-01-31T07:51:12;97931.34;;;3.06;64.90
41306;BME280;27051;50.376;19.152;2023-01-31T07:53:39;97932.30;;;3.12;64.89
41306;BME280;27051;50.376;19.152;2023-01-31T07:58:34;97936.16;;;3.21;64.87
41306;BME280;27051;50.376;19.152;2023-01-31T08:01:02;97936.05;;;3.24;64.52
41306;BME280;27051;50.376;19.152;2023-01-31T08:03:29;97941.83;;;3.25;64.72
41306;BME280;27051;50.376;19.152;2023-01-31T08:05:57;97942.84;;;3.28;64.66
41306;BME280;27051;50.376;19.152;2023-01-31T08:08:24;97946.44;;;3.25;64.49
41306;BME280;27051;50.376;19.152;2023-01-31T08:10:51;97946.71;;;3.28;64.68
41306;BME280;27051;50.376;19.152;2023-01-31T08:13:48;97952.80;;;3.32;64.48
41306;BME280;27051;50.376;19.152;2023-01-31T08:16:14;97957.11;;;3.35;64.65
41306;BME280;27051;50.376;19.152;2023-01-31T08:18:41;97956.15;;;3.35;64.48
41306;BME280;27051;50.376;19.152;2023-01-31T08:21:10;97958.13;;;3.32;64.29
41306;BME280;27051;50.376;19.152;2023-01-31T08:23:38;97964.98;;;3.33;64.38
41306;BME280;27051;50.376;19.152;2023-01-31T08:26:07;97969.50;;;3.38;64.29
41306;BME280;27051;50.376;19.152;2023-01-31T08:28:34;97976.63;;;3.42;64.48
41306;BME280;27051;50.376;19.152;2023-01-31T08:31:02;97978.80;;;3.51;64.66
41306;BME280;27051;50.376;19.152;2023-01-31T08:33:32;97979.49;;;3.59;64.43
41306;BME280;27051;50.376;19.152;2023-01-31T08:36:28;97983.18;;;3.61;64.30
41306;BME280;27051;50.376;19.152;2023-01-31T08:38:57;97983.61;;;3.66;64.44
41306;BME280;27051;50.376;19.152;2023-01-31T08:41:35;97983.35;;;3.75;64.29
41306;BME280;27051;50.376;19.152;2023-01-31T08:44:10;97990.30;;;3.82;64.37
41306;BME280;27051;50.376;19.152;2023-01-31T08:46:37;97994.77;;;3.82;63.95
41306;BME280;27051;50.376;19.152;2023-01-31T08:51:52;97998.60;;;3.95;64.01
41306;BME280;27051;50.376;19.152;2023-01-31T08:57:07;97999.76;;;4.04;63.53
41306;BME280;27051;50.376;19.152;2023-01-31T08:59:34;98001.69;;;4.00;63.59
41306;BME280;27051;50.376;19.152;2023-01-31T09:02:01;98005.86;;;4.02;63.62
41306;BME280;27051;50.376;19.152;2023-01-31T09:04:46;98007.29;;;4.03;63.72
41306;BME280;27051;50.376;19.152;2023-01-31T09:07:13;98013.65;;;4.11;63.49
41306;BME280;27051;50.376;19.152;2023-01-31T09:12:37;98022.77;;;4.22;63.51
41306;BME280;27051;50.376;19.152;2023-01-31T09:15:13;98026.98;;;4.22;63.28
41306;BME280;27051;50.376;19.152;2023-01-31T09:18:05;98025.04;;;4.13;62.93
41306;BME280;27051;50.376;19.152;2023-01-31T09:20:30;98031.07;;;4.09;63.05
41306;BME280;27051;50.376;19.152;2023-01-31T09:23:00;98031.68;;;4.14;63.20
41306;BME280;27051;50.376;19.152;2023-01-31T09:25:27;98027.50;;;4.23;63.08
41306;BME280;27051;50.376;19.152;2023-01-31T09:27:53;98027.48;;;4.27;62.89
41306;BME280;27051;50.376;19.152;2023-01-31T09:30:21;98029.98;;;4.28;62.76
41306;BME280;27051;50.376;19.152;2023-01-31T09:35:35;98026.98;;;4.22;62.66
41306;BME280;27051;50.376;19.152;2023-01-31T09:38:02;98028.36;;;4.27;62.61
41306;BME280;27051;50.376;19.152;2023-01-31T09:40:31;98032.86;;;4.33;62.56
41306;BME280;27051;50.376;19.152;2023-01-31T09:43:10;98028.38;;;4.39;62.08
41306;BME280;27051;50.376;19.152;2023-01-31T09:45:39;98029.17;;;4.40;61.94
41306;BME280;27051;50.376;19.152;2023-01-31T09:48:15;98035.98;;;4.46;62.00
41306;BME280;27051;50.376;19.152;2023-01-31T09:50:51;98037.94;;;4.50;61.42
41306;BME280;27051;50.376;19.152;2023-01-31T09:53:34;98042.23;;;4.55;61.62
41306;BME280;27051;50.376;19.152;2023-01-31T09:59:19;98041.36;;;4.44;61.33
41306;BME280;27051;50.376;19.152;2023-01-31T10:10:02;98044.82;;;4.40;60.15
41306;BME280;27051;50.376;19.152;2023-01-31T10:12:50;98046.67;;;4.30;60.00
41306;BME280;27051;50.376;19.152;2023-01-31T10:15:43;98042.77;;;4.30;60.57
41306;BME280;27051;50.376;19.152;2023-01-31T10:18:22;98046.70;;;4.28;60.43
41306;BME280;27051;50.376;19.152;2023-01-31T10:21:14;98044.80;;;4.28;60.36
41306;BME280;27051;50.376;19.152;2023-01-31T10:23:56;98047.55;;;4.24;60.75
41306;BME280;27051;50.376;19.152;2023-01-31T10:26:26;98049.02;;;4.20;60.81
41306;BME280;27051;50.376;19.152;2023-01-31T10:35:00;98043.11;;;4.14;60.46
41306;BME280;27051;50.376;19.152;2023-01-31T10:37:34;98051.65;;;4.08;60.63
41306;BME280;27051;50.376;19.152;2023-01-31T10:40:23;98048.41;;;4.07;60.44
41306;BME280;27051;50.376;19.152;2023-01-31T10:45:47;98043.65;;;4.03;60.79
41306;BME280;27051;50.376;19.152;2023-01-31T10:51:31;98041.15;;;4.10;60.66
41306;BME280;27051;50.376;19.152;2023-01-31T10:57:00;98039.48;;;4.32;61.12
41306;BME280;27051;50.376;19.152;2023-01-31T10:59:42;98036.14;;;4.42;60.77
41306;BME280;27051;50.376;19.152;2023-01-31T11:02:19;98033.86;;;4.46;60.83
41306;BME280;27051;50.376;19.152;2023-01-31T11:04:49;98029.98;;;4.43;60.51
41306;BME280;27051;50.376;19.152;2023-01-31T11:07:20;98028.11;;;4.41;60.64
41306;BME280;27051;50.376;19.152;2023-01-31T11:09:53;98027.92;;;4.48;60.86
41306;BME280;27051;50.376;19.152;2023-01-31T11:12:41;98024.65;;;4.53;60.76
41306;BME280;27051;50.376;19.152;2023-01-31T11:15:36;98024.71;;;4.56;60.47
41306;BME280;27051;50.376;19.152;2023-01-31T11:18:04;98022.07;;;4.55;60.35
41306;BME280;27051;50.376;19.152;2023-01-31T11:20:57;98023.10;;;4.51;60.32
41306;BME280;27051;50.376;19.152;2023-01-31T11:23:33;98017.61;;;4.47;60.23
41306;BME280;27051;50.376;19.152;2023-01-31T11:26:09;98012.08;;;4.47;60.39
41306;BME280;27051;50.376;19.152;2023-01-31T11:28:40;98009.86;;;4.51;60.25
41306;BME280;27051;50.376;19.152;2023-01-31T11:31:47;97999.46;;;4.59;59.84
41306;BME280;27051;50.376;19.152;2023-01-31T11:37:16;98004.86;;;4.74;59.80
41306;BME280;27051;50.376;19.152;2023-01-31T11:46:05;97998.44;;;4.88;59.28
41306;BME280;27051;50.376;19.152;2023-01-31T11:48:40;97997.90;;;4.87;58.95
41306;BME280;27051;50.376;19.152;2023-01-31T11:54:33;97996.94;;;5.04;59.17
41306;BME280;27051;50.376;19.152;2023-01-31T11:59:52;97988.08;;;6.17;58.51
41306;BME280;27051;50.376;19.152;2023-01-31T12:02:33;97983.64;;;6.43;57.72
41306;BME280;27051;50.376;19.152;2023-01-31T12:05:16;97983.89;;;6.37;57.26
41306;BME280;27051;50.376;19.152;2023-01-31T12:07:49;97983.20;;;6.33;57.48
41306;BME280;27051;50.376;19.152;2023-01-31T12:10:33;97985.09;;;6.27;56.81
41306;BME280;27051;50.376;19.152;2023-01-31T12:16:02;97985.97;;;5.95;57.34
41306;BME280;27051;50.376;19.152;2023-01-31T12:21:26;97977.70;;;5.77;57.39
41306;BME280;27051;50.376;19.152;2023-01-31T12:24:12;97970.48;;;5.83;57.59
41306;BME280;27051;50.376;19.152;2023-01-31T12:26:47;97969.18;;;5.91;57.67
41306;BME280;27051;50.376;19.152;2023-01-31T12:32:25;97969.03;;;5.98;57.72
41306;BME280;27051;50.376;19.152;2023-01-31T12:35:26;97967.03;;;5.94;57.73
41306;BME280;27051;50.376;19.152;2023-01-31T12:38:16;97966.65;;;5.82;57.48
41306;BME280;27051;50.376;19.152;2023-01-31T12:41:11;97960.95;;;5.79;57.70
41306;BME280;27051;50.376;19.152;2023-01-31T12:50:09;97953.25;;;6.01;57.43
41306;BME280;27051;50.376;19.152;2023-01-31T12:53:13;97948.29;;;5.93;57.04
41306;BME280;27051;50.376;19.152;2023-01-31T12:56:17;97946.17;;;5.83;57.29
41306;BME280;27051;50.376;19.152;2023-01-31T13:04:41;97945.64;;;5.75;57.01
41306;BME280;27051;50.376;19.152;2023-01-31T13:07:19;97941.56;;;6.39;56.73
41306;BME280;27051;50.376;19.152;2023-01-31T13:09:50;97930.20;;;8.35;55.09
41306;BME280;27051;50.376;19.152;2023-01-31T13:12:21;97930.34;;;8.40;54.45
41306;BME280;27051;50.376;19.152;2023-01-31T13:15:09;97932.59;;;8.08;54.10
41306;BME280;27051;50.376;19.152;2023-01-31T13:20:44;97937.19;;;7.50;55.23
41306;BME280;27051;50.376;19.152;2023-01-31T13:23:26;97937.13;;;7.35;55.05
41306;BME280;27051;50.376;19.152;2023-01-31T13:26:12;97939.10;;;7.12;55.29
41306;BME280;27051;50.376;19.152;2023-01-31T13:31:37;97935.11;;;6.60;55.85
41306;BME280;27051;50.376;19.152;2023-01-31T13:34:18;97931.56;;;6.47;55.89
41306;BME280;27051;50.376;19.152;2023-01-31T13:37:13;97926.80;;;6.30;56.27
41306;BME280;27051;50.376;19.152;2023-01-31T13:39:50;97924.57;;;6.28;56.49
41306;BME280;27051;50.376;19.152;2023-01-31T13:42:18;97923.23;;;6.26;56.39
41306;BME280;27051;50.376;19.152;2023-01-31T13:51:15;97929.30;;;6.00;56.41
41306;BME280;27051;50.376;19.152;2023-01-31T13:56:41;97935.92;;;6.02;56.13
41306;BME280;27051;50.376;19.152;2023-01-31T13:59:21;97931.30;;;5.98;56.20
41306;BME280;27051;50.376;19.152;2023-01-31T14:01:50;97937.05;;;5.95;56.33
41306;BME280;27051;50.376;19.152;2023-01-31T14:04:25;97939.92;;;5.86;56.25
41306;BME280;27051;50.376;19.152;2023-01-31T14:09:41;97939.58;;;5.71;56.76
41306;BME280;27051;50.376;19.152;2023-01-31T14:18:00;97926.36;;;5.66;56.68
41306;BME280;27051;50.376;19.152;2023-01-31T14:20:14;97923.83;;;5.66;56.82
41306;BME280;27051;50.376;19.152;2023-01-31T14:23:28;97911.10;;;5.71;56.84
41306;BME280;27051;50.376;19.152;2023-01-31T14:29:40;97902.85;;;5.57;56.73
41306;BME280;27051;50.376;19.152;2023-01-31T14:32:13;97900.56;;;5.46;57.04
41306;BME280;27051;50.376;19.152;2023-01-31T14:35:33;97895.27;;;5.36;57.07
41306;BME280;27051;50.376;19.152;2023-01-31T14:43:02;97893.03;;;5.17;57.62
41306;BME280;27051;50.376;19.152;2023-01-31T14:48:12;97883.31;;;5.06;57.56
41306;BME280;27051;50.376;19.152;2023-01-31T14:58:43;97882.98;;;4.74;58.26
41306;BME280;27051;50.376;19.152;2023-01-31T15:01:11;97888.23;;;4.64;58.41
41306;BME280;27051;50.376;19.152;2023-01-31T15:03:55;97885.54;;;4.54;58.69
41306;BME280;27051;50.376;19.152;2023-01-31T15:06:27;97885.17;;;4.52;58.89
41306;BME280;27051;50.376;19.152;2023-01-31T15:09:35;97885.69;;;4.48;59.00
41306;BME280;27051;50.376;19.152;2023-01-31T15:12:03;97881.91;;;4.46;59.26
41306;BME280;27051;50.376;19.152;2023-01-31T15:14:37;97877.46;;;4.41;59.44
41306;BME280;27051;50.376;19.152;2023-01-31T15:17:33;97878.98;;;4.33;59.58
41306;BME280;27051;50.376;19.152;2023-01-31T15:20:13;97878.56;;;4.22;59.84
41306;BME280;27051;50.376;19.152;2023-01-31T15:22:57;97878.42;;;4.13;59.89
41306;BME280;27051;50.376;19.152;2023-01-31T15:25:55;97875.35;;;4.06;60.49
41306;BME280;27051;50.376;19.152;2023-01-31T15:28:30;97870.63;;;3.99;60.57
41306;BME280;27051;50.376;19.152;2023-01-31T15:31:30;97867.59;;;3.89;60.75
41306;BME280;27051;50.376;19.152;2023-01-31T15:34:03;97866.59;;;3.79;60.71
41306;BME280;27051;50.376;19.152;2023-01-31T15:36:37;97862.09;;;3.75;60.97
41306;BME280;27051;50.376;19.152;2023-01-31T15:41:47;97860.88;;;3.78;61.35
41306;BME280;27051;50.376;19.152;2023-01-31T15:44:20;97858.48;;;3.81;61.32
41306;BME280;27051;50.376;19.152;2023-01-31T15:46:52;97855.17;;;3.83;61.40
41306;BME280;27051;50.376;19.152;2023-01-31T15:49:26;97853.73;;;3.84;61.46
41306;BME280;27051;50.376;19.152;2023-01-31T15:52:12;97849.39;;;3.82;61.74
41306;BME280;27051;50.376;19.152;2023-01-31T15:54:53;97851.22;;;3.78;61.76
41306;BME280;27051;50.376;19.152;2023-01-31T15:57:26;97847.02;;;3.80;61.70
41306;BME280;27051;50.376;19.152;2023-01-31T15:59:55;97850.61;;;3.83;62.11